createdAt,value
2022-08-17T00:01:52.051Z,99744.97
2022-08-17T00:04:24.785Z,99749.44
2022-08-17T00:06:56.370Z,99746.39
2022-08-17T00:09:27.989Z,99740.13
2022-08-17T00:12:41.040Z,99741.13
2022-08-17T00:14:54.464Z,99744.50
2022-08-17T00:17:25.966Z,99747.42
2022-08-17T00:19:57.539Z,99749.86
2022-08-17T00:22:34.291Z,99750.86
2022-08-17T00:25:09.249Z,99750.09
2022-08-17T00:27:40.901Z,99752.98
2022-08-17T00:30:14.559Z,99759.44
2022-08-17T00:33:23.044Z,99752.77
2022-08-17T00:35:38.913Z,99751.17
2022-08-17T00:38:30.937Z,99752.60
2022-08-17T00:41:04.575Z,99754.19
2022-08-17T00:43:37.149Z,99756.92
2022-08-17T00:46:10.103Z,99758.96
2022-08-17T00:48:44.335Z,99757.97
2022-08-17T00:51:18.774Z,99756.77
2022-08-17T00:53:52.866Z,99760.27
2022-08-17T00:56:28.948Z,99755.80
2022-08-17T00:59:00.685Z,99755.06
2022-08-17T01:01:32.929Z,99757.92
2022-08-17T01:04:05.520Z,99753.36
2022-08-17T01:06:37.134Z,99753.77
2022-08-17T01:09:09.024Z,99753.59
2022-08-17T01:11:41.034Z,99754.00
2022-08-17T01:14:12.448Z,99757.32
2022-08-17T01:16:44.000Z,99762.80
2022-08-17T01:19:17.765Z,99759.88
2022-08-17T01:21:52.228Z,99757.73
2022-08-17T01:24:23.580Z,99758.55
2022-08-17T01:26:56.686Z,99758.77
2022-08-17T01:29:31.060Z,99762.75
2022-08-17T01:32:04.077Z,99759.34
2022-08-17T01:34:43.553Z,99760.98
2022-08-17T01:37:29.062Z,99760.00
2022-08-17T01:40:04.363Z,99759.71
2022-08-17T01:42:38.212Z,99758.30
2022-08-17T01:45:11.539Z,99760.19
2022-08-17T01:47:43.539Z,99762.02
2022-08-17T01:50:18.867Z,99769.73
2022-08-17T01:52:52.037Z,99773.31
2022-08-17T01:55:27.509Z,99775.14
2022-08-17T01:57:58.912Z,99768.94
2022-08-17T02:00:59.425Z,99769.05
2022-08-17T02:03:22.168Z,99766.23
2022-08-17T02:05:53.914Z,99764.52
2022-08-17T02:08:39.351Z,99764.40
2022-08-17T02:11:21.497Z,99764.59
2022-08-17T02:13:57.783Z,99768.73
2022-08-17T02:16:37.432Z,99764.11
2022-08-17T02:19:10.773Z,99770.06
2022-08-17T02:21:42.717Z,99773.08
2022-08-17T02:24:17.073Z,99775.25
2022-08-17T02:26:48.491Z,99774.48
2022-08-17T02:29:20.271Z,99775.27
2022-08-17T02:31:51.674Z,99774.29
2022-08-17T02:34:23.026Z,99770.89
2022-08-17T02:36:54.677Z,99776.54
2022-08-17T02:39:26.106Z,99775.11
2022-08-17T02:42:03.249Z,99776.95
2022-08-17T02:44:40.242Z,99773.00
2022-08-17T02:47:12.678Z,99777.29
2022-08-17T02:49:55.870Z,99780.70
2022-08-17T02:52:42.881Z,99779.27
2022-08-17T02:55:16.205Z,99780.52
2022-08-17T02:57:48.028Z,99780.96
2022-08-17T03:00:22.767Z,99778.77
2022-08-17T03:02:54.331Z,99780.77
2022-08-17T03:05:29.968Z,99778.63
2022-08-17T03:08:01.528Z,99782.30
2022-08-17T03:10:32.969Z,99777.03
2022-08-17T03:13:04.263Z,99775.56
2022-08-17T03:15:36.359Z,99779.35
2022-08-17T03:18:19.109Z,99780.25
2022-08-17T03:20:58.247Z,99781.86
2022-08-17T03:23:30.461Z,99786.35
2022-08-17T03:26:02.494Z,99788.66
2022-08-17T03:28:33.814Z,99788.75
2022-08-17T03:31:05.918Z,99792.44
2022-08-17T03:33:37.534Z,99793.53
2022-08-17T03:36:10.027Z,99793.27
2022-08-17T03:38:41.577Z,99797.22
2022-08-17T03:41:13.996Z,99800.01
2022-08-17T03:43:45.456Z,99804.02
2022-08-17T03:46:35.601Z,99807.33
2022-08-17T03:49:27.301Z,99806.55
2022-08-17T03:52:16.886Z,99807.48
2022-08-17T03:55:06.252Z,99810.48
2022-08-17T03:57:58.074Z,99809.21
2022-08-17T04:00:29.490Z,99812.37
2022-08-17T04:03:01.089Z,99812.92
2022-08-17T04:05:32.349Z,99816.02
2022-08-17T04:08:06.333Z,99818.08
2022-08-17T04:10:38.486Z,99823.27
2022-08-17T04:13:16.558Z,99820.67
2022-08-17T04:15:56.557Z,99824.21
2022-08-17T04:18:28.006Z,99827.75
2022-08-17T04:20:59.557Z,99832.80
2022-08-17T04:23:34.124Z,99831.88
2022-08-17T04:26:05.826Z,99830.72
2022-08-17T04:28:37.294Z,99829.59
2022-08-17T04:31:09.594Z,99829.02
2022-08-17T04:33:42.857Z,99825.73
2022-08-17T04:36:15.476Z,99828.39
2022-08-17T04:38:47.535Z,99828.47
2022-08-17T04:41:38.840Z,99827.80
2022-08-17T04:44:14.840Z,99827.38
2022-08-17T04:47:07.508Z,99827.70
2022-08-17T04:49:42.132Z,99827.46
2022-08-17T04:52:32.248Z,99827.55
2022-08-17T04:55:06.578Z,99825.88
2022-08-17T04:57:41.802Z,99822.61
2022-08-17T05:00:16.847Z,99823.08
2022-08-17T05:02:50.183Z,99818.50
2022-08-17T05:05:22.639Z,99824.16
2022-08-17T05:07:54.714Z,99824.95
2022-08-17T05:10:26.444Z,99826.50
2022-08-17T05:13:01.162Z,99829.95
2022-08-17T05:15:36.062Z,99827.61
2022-08-17T05:18:10.409Z,99820.28
2022-08-17T05:20:42.704Z,99827.00
2022-08-17T05:23:15.543Z,99830.42
2022-08-17T05:25:51.731Z,99823.90
2022-08-17T05:28:27.474Z,99827.98
2022-08-17T05:31:01.542Z,99826.58
2022-08-17T05:33:34.536Z,99829.41
2022-08-17T05:36:06.991Z,99830.61
2022-08-17T05:38:38.588Z,99838.61
2022-08-17T05:41:10.442Z,99839.02
2022-08-17T05:43:44.473Z,99836.81
2022-08-17T05:46:18.132Z,99837.92
2022-08-17T05:48:54.317Z,99842.46
2022-08-17T05:51:39.877Z,99842.78
2022-08-17T05:54:17.145Z,99846.60
2022-08-17T05:57:01.171Z,99847.05
2022-08-17T05:59:38.228Z,99847.48
2022-08-17T06:02:16.653Z,99849.14
2022-08-17T06:04:56.593Z,99851.51
2022-08-17T06:07:33.761Z,99853.62
2022-08-17T06:10:07.735Z,99857.79
2022-08-17T06:12:44.597Z,99855.86
2022-08-17T06:15:27.942Z,99858.56
2022-08-17T06:18:01.621Z,99860.66
2022-08-17T06:20:37.570Z,99858.48
2022-08-17T06:23:21.169Z,99863.59
2022-08-17T06:25:53.968Z,99864.34
2022-08-17T06:28:28.339Z,99865.00
2022-08-17T06:31:04.008Z,99868.08
2022-08-17T06:33:37.757Z,99875.08
2022-08-17T06:36:15.882Z,99868.13
2022-08-17T06:38:54.513Z,99864.55
2022-08-17T06:41:28.803Z,99866.39
2022-08-17T06:44:12.073Z,99867.71
2022-08-17T06:47:06.409Z,99870.50
2022-08-17T06:49:42.297Z,99867.23
2022-08-17T06:52:37.617Z,99865.52
2022-08-17T06:55:17.986Z,99860.09
2022-08-17T06:57:53.127Z,99855.96
2022-08-17T07:00:25.735Z,99862.56
2022-08-17T07:02:59.987Z,99865.93
2022-08-17T07:05:34.110Z,99862.86
2022-08-17T07:08:11.979Z,99861.79
2022-08-17T07:10:46.380Z,99864.25
2022-08-17T07:13:31.317Z,99869.33
2022-08-17T07:16:06.284Z,99871.73
2022-08-17T07:18:37.748Z,99872.19
2022-08-17T07:21:17.650Z,99875.61
2022-08-17T07:23:55.875Z,99876.30
2022-08-17T07:26:27.935Z,99875.15
2022-08-17T07:29:01.415Z,99874.48
2022-08-17T07:31:33.861Z,99876.64
2022-08-17T07:34:08.352Z,99879.02
2022-08-17T07:36:39.842Z,99886.60
2022-08-17T07:39:11.998Z,99886.22
2022-08-17T07:41:53.354Z,99887.55
2022-08-17T07:44:30.898Z,99885.56
2022-08-17T07:47:20.164Z,99883.92
2022-08-17T07:49:51.740Z,99880.08
2022-08-17T07:52:50.295Z,99880.92
2022-08-17T07:55:33.142Z,99886.91
2022-08-17T07:58:04.791Z,99880.77
2022-08-17T08:00:37.583Z,99882.09
2022-08-17T08:03:16.373Z,99879.23
2022-08-17T08:05:56.691Z,99878.52
2022-08-17T08:08:29.774Z,99877.69
2022-08-17T08:11:06.884Z,99879.46
2022-08-17T08:13:42.894Z,99876.46
2022-08-17T08:16:21.274Z,99873.62
2022-08-17T08:18:56.768Z,99868.88
2022-08-17T08:21:37.031Z,99871.36
2022-08-17T08:24:23.109Z,99871.87
2022-08-17T08:27:00.292Z,99871.38
2022-08-17T08:29:38.378Z,99874.02
2022-08-17T08:32:14.113Z,99878.23
2022-08-17T08:35:01.966Z,99881.38
2022-08-17T08:37:49.420Z,99876.91
2022-08-17T08:40:35.390Z,99872.83
2022-08-17T08:43:11.954Z,99876.98
2022-08-17T08:45:48.476Z,99878.58
2022-08-17T08:48:56.768Z,99880.12
2022-08-17T08:51:23.585Z,99877.81
2022-08-17T08:54:00.691Z,99875.82
2022-08-17T08:56:37.490Z,99874.70
2022-08-17T08:59:16.753Z,99876.83
2022-08-17T09:01:55.532Z,99875.80
2022-08-17T09:04:44.910Z,99879.95
2022-08-17T09:07:29.774Z,99882.11
2022-08-17T09:10:05.383Z,99881.31
2022-08-17T09:12:41.901Z,99877.55
2022-08-17T09:15:17.971Z,99876.52
2022-08-17T09:18:08.856Z,99877.13
2022-08-17T09:20:50.177Z,99879.27
2022-08-17T09:23:27.487Z,99882.71
2022-08-17T09:26:02.345Z,99886.62
2022-08-17T09:28:35.882Z,99885.00
2022-08-17T09:31:09.561Z,99884.86
2022-08-17T09:33:42.744Z,99886.69
2022-08-17T09:36:17.248Z,99885.21
2022-08-17T09:38:54.621Z,99888.20
2022-08-17T09:41:28.284Z,99887.59
2022-08-17T09:44:01.798Z,99886.27
2022-08-17T09:46:37.465Z,99885.59
2022-08-17T09:49:15.288Z,99889.14
2022-08-17T09:51:50.431Z,99884.55
2022-08-17T09:54:41.282Z,99886.99
2022-08-17T09:57:29.918Z,99885.89
2022-08-17T10:00:19.156Z,99886.44
2022-08-17T10:02:56.986Z,99886.89
2022-08-17T10:05:33.159Z,99884.28
2022-08-17T10:08:09.719Z,99888.05
2022-08-17T10:10:52.237Z,99887.85
2022-08-17T10:13:34.616Z,99889.46
2022-08-17T10:16:20.903Z,99888.81
2022-08-17T10:18:57.355Z,99892.29
2022-08-17T10:21:46.474Z,99892.70
2022-08-17T10:24:37.861Z,99890.00
2022-08-17T10:27:14.547Z,99895.54
2022-08-17T10:29:49.741Z,99892.02
2022-08-17T10:32:27.071Z,99894.17
2022-08-17T10:35:04.575Z,99894.19
2022-08-17T10:37:46.847Z,99894.71
2022-08-17T10:40:26.494Z,99893.80
2022-08-17T10:43:00.750Z,99893.30
2022-08-17T10:45:35.484Z,99890.89
2022-08-17T10:48:20.246Z,99894.68
2022-08-17T10:51:00.167Z,99886.80
2022-08-17T10:53:49.034Z,99888.08
2022-08-17T10:56:22.115Z,99887.30
2022-08-17T10:58:55.617Z,99887.77
2022-08-17T11:01:53.060Z,99890.69
2022-08-17T11:04:29.043Z,99889.89
2022-08-17T11:07:07.673Z,99891.00
2022-08-17T11:09:49.959Z,99886.38
2022-08-17T11:12:33.081Z,99884.52
2022-08-17T11:15:14.628Z,99883.42
2022-08-17T11:17:51.633Z,99882.16
2022-08-17T11:20:41.199Z,99883.77
2022-08-17T11:23:22.502Z,99883.77
2022-08-17T11:25:56.029Z,99879.14
2022-08-17T11:28:34.952Z,99882.20
2022-08-17T11:31:10.325Z,99884.35
2022-08-17T11:34:04.912Z,99884.39
2022-08-17T11:36:52.314Z,99886.09
2022-08-17T11:39:29.481Z,99881.19
2022-08-17T11:42:06.389Z,99884.05
2022-08-17T11:44:42.207Z,99885.02
2022-08-17T11:48:08.889Z,99886.50
2022-08-17T11:51:05.821Z,99883.88
2022-08-17T11:53:50.713Z,99881.15
2022-08-17T11:56:41.424Z,99880.17
2022-08-17T11:59:36.245Z,99880.71
2022-08-17T12:02:32.330Z,99880.13
2022-08-17T12:05:11.919Z,99879.41
2022-08-17T12:07:45.172Z,99881.42
2022-08-17T12:10:19.487Z,99880.59
2022-08-17T12:12:52.756Z,99882.49
2022-08-17T12:15:29.347Z,99876.04
2022-08-17T12:18:00.660Z,99874.20
2022-08-17T12:20:36.184Z,99877.19
2022-08-17T12:23:11.005Z,99875.59
2022-08-17T12:25:45.457Z,99874.36
2022-08-17T12:28:23.211Z,99873.56
2022-08-17T12:30:55.234Z,99875.06
2022-08-17T12:33:28.977Z,99875.79
2022-08-17T12:36:03.264Z,99876.58
2022-08-17T12:38:36.405Z,99874.84
2022-08-17T12:41:22.672Z,99877.36
2022-08-17T12:44:02.747Z,99872.71
2022-08-17T12:46:48.090Z,99874.54
2022-08-17T12:49:23.180Z,99870.17
2022-08-17T12:51:59.117Z,99875.49
2022-08-17T12:54:33.957Z,99880.40
2022-08-17T12:57:11.260Z,99880.44
2022-08-17T12:59:44.221Z,99878.23
2022-08-17T13:02:22.264Z,99873.46
2022-08-17T13:04:53.841Z,99882.13
2022-08-17T13:07:37.411Z,99878.57
2022-08-17T13:10:09.181Z,99884.56
2022-08-17T13:12:40.538Z,99880.20
2022-08-17T13:15:19.050Z,99881.17
2022-08-17T13:17:57.920Z,99878.73
2022-08-17T13:20:29.513Z,99872.58
2022-08-17T13:23:11.423Z,99874.14
2022-08-17T13:25:54.629Z,99870.70
2022-08-17T13:28:30.576Z,99862.96
2022-08-17T13:31:24.592Z,99861.67
2022-08-17T13:34:13.312Z,99857.05
2022-08-17T13:36:45.314Z,99859.98
2022-08-17T13:39:20.592Z,99862.80
2022-08-17T13:41:53.522Z,99863.21
2022-08-17T13:44:36.843Z,99864.61
2022-08-17T13:47:20.466Z,99866.15
2022-08-17T13:49:55.537Z,99867.13
2022-08-17T13:52:38.755Z,99867.69
2022-08-17T13:55:17.726Z,99871.30
2022-08-17T13:58:03.984Z,99867.36
2022-08-17T14:00:39.844Z,99866.20
2022-08-17T14:03:11.395Z,99866.25
2022-08-17T14:05:42.887Z,99864.11
2022-08-17T14:08:15.192Z,99867.91
2022-08-17T14:10:47.304Z,99864.63
2022-08-17T14:13:18.973Z,99862.86
2022-08-17T14:15:55.452Z,99862.96
2022-08-17T14:18:51.999Z,99865.93
2022-08-17T14:21:20.096Z,99866.73
2022-08-17T14:23:54.915Z,99867.13
2022-08-17T14:26:26.575Z,99867.35
2022-08-17T14:28:57.953Z,99865.49
2022-08-17T14:31:31.910Z,99868.19
2022-08-17T14:34:06.809Z,99866.96
2022-08-17T14:36:38.220Z,99869.12
2022-08-17T14:39:09.660Z,99868.14
2022-08-17T14:41:44.390Z,99863.32
2022-08-17T14:44:15.819Z,99862.73
2022-08-17T14:46:48.342Z,99867.45
2022-08-17T14:49:21.028Z,99867.29
2022-08-17T14:51:52.487Z,99864.70
2022-08-17T14:54:33.729Z,99862.50
2022-08-17T14:57:23.307Z,99859.08
2022-08-17T14:59:59.695Z,99859.59
2022-08-17T15:02:31.669Z,99856.98
2022-08-17T15:05:03.640Z,99857.35
2022-08-17T15:07:34.990Z,99858.86
2022-08-17T15:10:06.860Z,99858.91
2022-08-17T15:12:39.459Z,99859.04
2022-08-17T15:15:13.121Z,99857.41
2022-08-17T15:17:45.898Z,99861.20
2022-08-17T15:20:19.379Z,99856.89
2022-08-17T15:22:51.440Z,99858.23
2022-08-17T15:25:23.034Z,99852.44
2022-08-17T15:27:54.467Z,99853.70
2022-08-17T15:30:30.117Z,99848.79
2022-08-17T15:33:02.300Z,99851.23
2022-08-17T15:35:35.296Z,99853.55
2022-08-17T15:38:11.625Z,99854.96
2022-08-17T15:40:44.914Z,99856.61
2022-08-17T15:43:17.466Z,99856.27
2022-08-17T15:45:54.850Z,99853.69
2022-08-17T15:48:42.573Z,99856.05
2022-08-17T15:51:15.843Z,99856.48
2022-08-17T15:53:49.232Z,99859.97
2022-08-17T15:56:21.021Z,99856.07
2022-08-17T15:58:52.901Z,99855.67
2022-08-17T16:02:14.259Z,99851.80
2022-08-17T16:04:29.806Z,99854.17
2022-08-17T16:07:02.697Z,99859.98
2022-08-17T16:09:34.047Z,99862.82
2022-08-17T16:12:12.097Z,99869.21
2022-08-17T16:14:43.531Z,99870.63
2022-08-17T16:17:38.554Z,99867.71
2022-08-17T16:20:07.323Z,99869.25
2022-08-17T16:22:39.509Z,99871.39
2022-08-17T16:25:12.772Z,99870.42
2022-08-17T16:27:44.358Z,99873.52
2022-08-17T16:30:17.879Z,99869.35
2022-08-17T16:32:51.747Z,99870.04
2022-08-17T16:35:25.398Z,99863.64
2022-08-17T16:37:57.509Z,99869.59
2022-08-17T16:40:33.109Z,99874.70
2022-08-17T16:43:10.868Z,99876.73
2022-08-17T16:45:42.742Z,99876.21
2022-08-17T16:48:15.697Z,99879.64
2022-08-17T16:51:03.311Z,99883.92
2022-08-17T16:53:36.056Z,99890.35
2022-08-17T16:56:08.248Z,99892.61
2022-08-17T16:58:41.251Z,99893.09
2022-08-17T17:01:15.206Z,99895.92
2022-08-17T17:03:48.643Z,99898.27
2022-08-17T17:06:26.616Z,99899.91
2022-08-17T17:09:00.402Z,99902.89
2022-08-17T17:11:33.908Z,99905.39
2022-08-17T17:14:06.798Z,99908.42
2022-08-17T17:16:46.232Z,99909.84
2022-08-17T17:19:34.569Z,99911.84
2022-08-17T17:22:13.311Z,99905.02
2022-08-17T17:24:50.272Z,99903.50
2022-08-17T17:27:29.907Z,99905.96
2022-08-17T17:30:06.399Z,99904.81
2022-08-17T17:32:40.930Z,99907.55
2022-08-17T17:35:17.769Z,99908.81
2022-08-17T17:37:50.037Z,99915.55
2022-08-17T17:40:24.078Z,99921.48
2022-08-17T17:43:14.379Z,99926.13
2022-08-17T17:45:53.808Z,99939.51
2022-08-17T17:48:25.133Z,99942.97
2022-08-17T17:51:03.020Z,99945.33
2022-08-17T17:53:43.100Z,99945.94
2022-08-17T17:56:43.731Z,99943.58
2022-08-17T17:59:21.029Z,99946.73
2022-08-17T18:01:57.705Z,99948.55
2022-08-17T18:04:33.474Z,99947.27
2022-08-17T18:07:17.284Z,99950.95
2022-08-17T18:10:01.571Z,99950.23
2022-08-17T18:12:38.110Z,99954.70
2022-08-17T18:15:23.409Z,99965.27
2022-08-17T18:18:20.127Z,99969.77
2022-08-17T18:20:55.820Z,99969.18
2022-08-17T18:23:28.769Z,99966.26
2022-08-17T18:26:02.226Z,99963.92
2022-08-17T18:28:34.854Z,99962.09
2022-08-17T18:31:08.078Z,99962.01
2022-08-17T18:33:40.065Z,99958.48
2022-08-17T18:36:12.075Z,99959.18
2022-08-17T18:38:43.892Z,99957.09
2022-08-17T18:41:20.948Z,99959.19
2022-08-17T18:44:02.755Z,99965.52
2022-08-17T18:46:37.749Z,99966.65
2022-08-17T18:49:25.871Z,99971.59
2022-08-17T18:52:09.212Z,99973.21
2022-08-17T18:54:40.715Z,99975.22
2022-08-17T18:57:13.369Z,99977.54
2022-08-17T18:59:45.898Z,99978.20
2022-08-17T19:02:37.317Z,99979.20
2022-08-17T19:05:26.723Z,99981.98
2022-08-17T19:08:16.203Z,99984.02
2022-08-17T19:10:48.888Z,99987.18
2022-08-17T19:13:24.489Z,99987.83
2022-08-17T19:16:14.459Z,99987.05
2022-08-17T19:18:49.967Z,99987.54
2022-08-17T19:21:23.780Z,99986.13
2022-08-17T19:23:59.001Z,99986.12
2022-08-17T19:26:55.163Z,99991.94
2022-08-17T19:29:27.103Z,99993.77
2022-08-17T19:31:59.412Z,99993.95
2022-08-17T19:34:34.011Z,99991.89
2022-08-17T19:37:09.386Z,99995.17
2022-08-17T19:39:44.930Z,99998.31
2022-08-17T19:42:18.630Z,100000.85
2022-08-17T19:44:56.652Z,99999.71
2022-08-17T19:47:53.853Z,100000.49
2022-08-17T19:50:32.058Z,100004.67
2022-08-17T19:53:08.241Z,100014.62
2022-08-17T19:55:49.355Z,100017.84
2022-08-17T19:58:26.237Z,100015.60
2022-08-17T20:00:57.967Z,100015.39
2022-08-17T20:03:52.631Z,100013.91
2022-08-17T20:06:25.204Z,100017.28
2022-08-17T20:09:00.150Z,100017.20
2022-08-17T20:11:35.021Z,100016.58
2022-08-17T20:14:09.694Z,100018.34
2022-08-17T20:16:41.139Z,100019.07
2022-08-17T20:19:18.846Z,100024.71
2022-08-17T20:21:53.716Z,100017.67
2022-08-17T20:24:30.410Z,100021.50
2022-08-17T20:27:11.394Z,100022.82
2022-08-17T20:30:02.781Z,100025.45
2022-08-17T20:32:36.012Z,100029.94
2022-08-17T20:35:22.768Z,100029.38
2022-08-17T20:37:55.637Z,100029.63
2022-08-17T20:40:28.737Z,100032.14
2022-08-17T20:43:00.478Z,100034.05
2022-08-17T20:45:50.596Z,100025.09
2022-08-17T20:48:37.525Z,100028.13
2022-08-17T20:51:20.612Z,100031.16
2022-08-17T20:54:14.385Z,100035.35
2022-08-17T20:56:58.071Z,100043.55
2022-08-17T20:59:47.085Z,100050.30
2022-08-17T21:02:22.395Z,100057.95
2022-08-17T21:05:07.294Z,100060.50
2022-08-17T21:07:55.987Z,100058.84
2022-08-17T21:10:37.132Z,100059.08
2022-08-17T21:13:25.477Z,100058.48
2022-08-17T21:16:00.542Z,100065.55
2022-08-17T21:18:39.021Z,100064.34
2022-08-17T21:21:18.492Z,100068.02
2022-08-17T21:24:00.781Z,100067.36
2022-08-17T21:26:50.151Z,100075.84
2022-08-17T21:29:31.967Z,100077.95
2022-08-17T21:32:24.179Z,100080.31
2022-08-17T21:35:14.279Z,100077.40
2022-08-17T21:37:46.400Z,100073.94
2022-08-17T21:40:25.214Z,100073.03
2022-08-17T21:42:58.371Z,100069.85
2022-08-17T21:45:32.452Z,100063.64
2022-08-17T21:48:11.413Z,100064.73
2022-08-17T21:50:44.564Z,100061.34
2022-08-17T21:53:19.741Z,100063.91
2022-08-17T21:55:51.893Z,100062.14
2022-08-17T21:58:29.802Z,100064.70
2022-08-17T22:01:19.132Z,100059.69
2022-08-17T22:03:57.144Z,100056.66
2022-08-17T22:06:29.377Z,100052.55
2022-08-17T22:09:07.114Z,100050.02
2022-08-17T22:11:53.016Z,100048.52
2022-08-17T22:14:26.032Z,100051.04
2022-08-17T22:17:11.202Z,100052.01
2022-08-17T22:19:43.672Z,100046.85
2022-08-17T22:22:26.651Z,100041.15
2022-08-17T22:24:59.176Z,100043.78
2022-08-17T22:27:48.338Z,100048.56
2022-08-17T22:30:21.113Z,100047.13
2022-08-17T22:32:53.140Z,100042.08
2022-08-17T22:35:34.913Z,100035.92
2022-08-17T22:38:23.225Z,100034.80
2022-08-17T22:40:56.166Z,100038.29
2022-08-17T22:43:30.082Z,100034.19
2022-08-17T22:46:09.162Z,100031.39
2022-08-17T22:48:48.099Z,100027.31
2022-08-17T22:51:22.126Z,100027.52
2022-08-17T22:54:11.857Z,100024.36
2022-08-17T22:57:07.276Z,100023.25
2022-08-17T22:59:42.464Z,100022.96
2022-08-17T23:02:19.329Z,100023.56
2022-08-17T23:04:52.953Z,100025.27
2022-08-17T23:07:54.024Z,100020.60
2022-08-17T23:10:25.829Z,100013.09
2022-08-17T23:13:00.053Z,100010.61
2022-08-17T23:15:33.990Z,100003.60
2022-08-17T23:18:05.577Z,100002.28
2022-08-17T23:20:38.261Z,100002.83
2022-08-17T23:23:11.463Z,99998.39
2022-08-17T23:25:45.003Z,100006.58
2022-08-17T23:28:17.243Z,100005.72
2022-08-17T23:30:48.848Z,100001.92
2022-08-17T23:33:23.002Z,99998.92
2022-08-17T23:35:54.510Z,99998.70
2022-08-17T23:38:27.630Z,99999.67
2022-08-17T23:41:01.539Z,99997.32
2022-08-17T23:43:32.903Z,99996.61
2022-08-17T23:46:04.333Z,99990.88
2022-08-17T23:48:37.422Z,99992.92
2022-08-17T23:51:11.168Z,99996.00
2022-08-17T23:53:44.378Z,99990.42
2022-08-17T23:56:16.066Z,99987.33
2022-08-17T23:58:47.335Z,99988.11
